Time;durP1;ratioP1;P1;durP2;ratioP2;P2;SDS_P1;SDS_P2;PMS_P1;PMS_P2;Temp;Humidity;BMP_temperature;BMP_pressure;BME280_temperature;BME280_humidity;BME280_pressure;Samples;Min_cycle;Max_cycle;Signal;HPM_P1;HPM_P2
2021/12/05 00:22:00;;;;;;;24.70;14.95;;;;;;;2.11;98.70;99655.72;1662190;86;21281;-83
2021/12/05 00:25:06;;;;;;;23.18;15.35;;;;;;;2.12;98.79;99652.05;1661123;86;21405;-82
2021/12/05 00:31:45;;;;;;;22.90;15.10;;;;;;;2.17;98.81;99649.80;1659923;86;21360;-82
2021/12/05 00:38:19;;;;;;;24.65;15.50;;;;;;;2.13;98.37;99624.08;1662368;86;21332;-83
2021/12/05 00:47:38;;;;;;;17.75;11.85;;;;;;;1.99;98.97;99629.88;1661666;86;21350;-83
2021/12/05 00:54:20;;;;;;;19.73;13.20;;;;;;;1.99;98.96;99621.78;1654664;85;21178;-82
2021/12/05 01:00:23;;;;;;;15.45;11.78;;;;;;;1.89;98.91;99625.80;1650098;86;21333;-83
2021/12/05 01:03:21;;;;;;;22.98;14.25;;;;;;;1.83;99.28;99623.62;1649625;86;21343;-83
2021/12/05 01:15:56;;;;;;;16.27;11.85;;;;;;;1.73;100.00;99620.91;1647876;86;21288;-83
2021/12/05 01:19:01;;;;;;;15.72;11.05;;;;;;;1.74;100.00;99615.02;1654459;86;21284;-82
2021/12/05 01:22:17;;;;;;;19.82;12.73;;;;;;;1.75;100.00;99612.20;1662178;86;21284;-83
2021/12/05 01:25:45;;;;;;;18.20;11.18;;;;;;;1.76;100.00;99611.20;1662127;86;21280;-82
2021/12/05 01:28:59;;;;;;;17.40;11.63;;;;;;;1.70;100.00;99605.02;1662280;86;21177;-83
2021/12/05 01:32:13;;;;;;;19.07;11.57;;;;;;;1.74;100.00;99606.45;1662133;86;21891;-83
2021/12/05 01:35:28;;;;;;;16.55;12.28;;;;;;;1.79;100.00;99611.44;1662141;86;21345;-82
2021/12/05 01:42:09;;;;;;;13.45;10.35;;;;;;;1.82;100.00;99604.41;1661624;84;21296;-83
2021/12/05 01:54:57;;;;;;;13.45;9.05;;;;;;;1.65;100.00;99607.28;1660667;86;21344;-83
2021/12/05 02:01:18;;;;;;;13.90;8.03;;;;;;;1.74;100.00;99598.37;1660748;86;21363;-83
2021/12/05 02:31:36;;;;;;;12.25;8.45;;;;;;;1.75;100.00;99581.19;1661074;86;21210;-83
2021/12/05 02:38:10;;;;;;;15.85;9.48;;;;;;;1.86;99.59;99590.16;1661066;86;21375;-82
2021/12/05 02:44:21;;;;;;;16.02;10.82;;;;;;;1.90;98.62;99579.45;1659719;86;21347;-83
2021/12/05 02:47:26;;;;;;;14.93;10.75;;;;;;;1.86;98.12;99595.05;1662040;86;21284;-82
2021/12/05 02:50:34;;;;;;;15.35;10.35;;;;;;;1.81;98.02;99592.41;1662250;86;21900;-82
2021/12/05 02:53:46;;;;;;;16.20;10.63;;;;;;;1.83;98.13;99594.47;1662240;86;21190;-82
2021/12/05 02:56:50;;;;;;;13.48;10.70;;;;;;;1.81;97.91;99604.55;1644515;86;21769;-82
2021/12/05 02:59:59;;;;;;;13.38;9.95;;;;;;;1.77;97.72;99599.42;1659836;86;21779;-83
2021/12/05 03:03:16;;;;;;;12.65;8.95;;;;;;;1.75;97.93;99600.06;1661011;86;21193;-83
2021/12/05 03:06:22;;;;;;;17.90;10.43;;;;;;;1.73;98.05;99597.98;1661077;86;21320;-82
2021/12/05 03:09:27;;;;;;;14.30;9.43;;;;;;;1.70;98.25;99594.23;1661268;85;21653;-82
2021/12/05 03:12:35;;;;;;;16.87;9.35;;;;;;;1.73;98.50;99607.42;1662230;86;21328;-83
2021/12/05 03:15:41;;;;;;;12.90;9.75;;;;;;;1.74;98.43;99601.53;1687320;84;21701;-83
2021/12/05 03:18:46;;;;;;;13.05;8.20;;;;;;;1.74;98.30;99602.41;1662134;86;21348;-82
2021/12/05 03:21:53;;;;;;;13.20;8.55;;;;;;;1.76;98.27;99615.75;1661503;86;21393;-82
2021/12/05 03:24:58;;;;;;;16.65;11.45;;;;;;;1.75;98.11;99608.16;1660217;86;21328;-83
2021/12/05 03:28:03;;;;;;;16.82;12.45;;;;;;;1.71;98.02;99616.66;1661098;86;21904;-82
2021/12/05 03:31:09;;;;;;;18.12;12.98;;;;;;;1.73;98.13;99618.20;1661205;86;21214;-83
2021/12/05 03:34:17;;;;;;;18.30;12.47;;;;;;;1.77;97.89;99620.99;1662051;85;21802;-83
2021/12/05 03:37:24;;;;;;;18.82;12.50;;;;;;;1.77;97.46;99630.43;1661319;86;21205;-82
2021/12/05 03:40:33;;;;;;;20.05;12.70;;;;;;;1.76;97.15;99625.19;1661214;86;21340;-83
2021/12/05 03:43:41;;;;;;;18.82;13.05;;;;;;;1.73;96.95;99635.73;1659213;86;21289;-82
2021/12/05 03:46:47;;;;;;;23.77;13.30;;;;;;;1.67;96.90;99647.08;1660125;86;21332;-82
2021/12/05 03:49:53;;;;;;;21.25;13.13;;;;;;;1.62;96.84;99653.37;1661451;86;21329;-82
2021/12/05 03:52:59;;;;;;;21.40;12.65;;;;;;;1.58;97.03;99651.92;1661822;86;21883;-82
2021/12/05 03:56:08;;;;;;;23.73;12.13;;;;;;;1.54;97.24;99643.75;1661316;86;21371;-82
2021/12/05 03:59:12;;;;;;;21.55;12.73;;;;;;;1.53;97.54;99643.39;1661047;86;21352;-82
2021/12/05 04:02:19;;;;;;;20.72;14.00;;;;;;;1.51;97.77;99646.73;1661464;86;22002;-83
2021/12/05 04:05:26;;;;;;;17.00;11.95;;;;;;;1.46;98.00;99644.94;1660554;86;21753;-83
2021/12/05 04:08:33;;;;;;;23.15;14.00;;;;;;;1.43;98.25;99653.28;1662474;85;21862;-83
2021/12/05 04:11:44;;;;;;;23.38;13.55;;;;;;;1.44;98.46;99661.72;1661779;86;21245;-83
2021/12/05 04:14:57;;;;;;;24.82;13.75;;;;;;;1.43;98.56;99651.44;1661826;86;21356;-83
2021/12/05 04:18:01;;;;;;;29.35;14.87;;;;;;;1.46;98.77;99661.11;1661674;86;21243;-82
2021/12/05 04:21:08;;;;;;;25.30;15.60;;;;;;;1.46;98.68;99671.39;1661425;86;21324;-83
2021/12/05 04:24:15;;;;;;;23.32;14.28;;;;;;;1.44;98.63;99665.76;1661362;86;21372;-83
2021/12/05 04:27:21;;;;;;;23.67;15.00;;;;;;;1.40;98.80;99666.52;1662241;86;21344;-82
2021/12/05 04:30:28;;;;;;;25.25;14.33;;;;;;;1.35;99.03;99671.45;1660549;86;21899;-83
2021/12/05 04:33:33;;;;;;;19.48;13.15;;;;;;;1.38;99.32;99677.08;1661831;85;21375;-83
2021/12/05 04:36:38;;;;;;;28.12;16.73;;;;;;;1.38;99.37;99679.78;1662422;86;21281;-83
2021/12/05 04:39:45;;;;;;;29.25;16.50;;;;;;;1.36;99.42;99684.42;1662461;86;21221;-82
2021/12/05 04:42:51;;;;;;;27.20;16.80;;;;;;;1.39;99.63;99690.41;1662455;86;21281;-82
2021/12/05 04:45:55;;;;;;;28.80;16.52;;;;;;;1.45;99.56;99691.72;1660769;84;21340;-82
2021/12/05 04:49:02;;;;;;;28.80;16.70;;;;;;;1.45;99.28;99695.76;1661315;86;21328;-83
2021/12/05 04:52:08;;;;;;;22.15;13.50;;;;;;;1.45;99.21;99698.45;1661364;86;21214;-82
2021/12/05 04:55:13;;;;;;;27.90;15.13;;;;;;;1.49;99.07;99712.03;1671045;85;21367;-82
2021/12/05 04:58:18;;;;;;;25.37;15.88;;;;;;;1.49;98.83;99710.19;1671393;86;21327;-82
2021/12/05 05:01:24;;;;;;;21.37;14.18;;;;;;;1.53;98.68;99724.26;1672735;85;21320;-82
2021/12/05 05:04:30;;;;;;;25.23;14.60;;;;;;;1.52;98.31;99718.52;1672394;85;21185;-82
2021/12/05 05:07:38;;;;;;;25.15;14.07;;;;;;;1.47;98.02;99729.69;1672654;85;21288;-82
2021/12/05 05:10:43;;;;;;;28.17;13.78;;;;;;;1.44;98.03;99731.30;1672273;86;21331;-82
2021/12/05 05:13:48;;;;;;;27.95;15.48;;;;;;;1.44;98.03;99727.25;1662433;86;21337;-82
2021/12/05 05:16:55;;;;;;;28.75;15.40;;;;;;;1.41;98.03;99729.34;1661246;86;21357;-82
2021/12/05 05:20:05;;;;;;;21.10;13.58;;;;;;;1.37;98.02;99733.32;1635387;88;21189;-82
2021/12/05 05:23:23;;;;;;;23.75;12.63;;;;;;;1.34;98.05;99730.88;1634329;88;21237;-82
2021/12/05 05:40:13;;;;;;;20.35;12.98;;;;;;;1.35;98.10;99768.95;1662360;86;21301;-82
2021/12/05 05:43:14;;;;;;;23.30;14.47;;;;;;;1.33;97.99;99754.77;1661453;86;21323;-82
2021/12/05 05:46:18;;;;;;;22.32;13.35;;;;;;;1.30;98.03;99754.53;1659882;86;21374;-82
2021/12/05 05:52:47;;;;;;;18.62;10.85;;;;;;;1.23;98.24;99754.20;1661394;86;21934;-82
2021/12/05 05:55:55;;;;;;;25.68;13.55;;;;;;;1.23;98.63;99753.36;1662401;86;21851;-82
2021/12/05 05:59:16;;;;;;;20.30;13.08;;;;;;;1.24;98.69;99746.48;1660797;85;21229;-82
2021/12/05 06:05:21;;;;;;;19.73;13.55;;;;;;;1.17;98.77;99739.89;1661278;86;21839;-82
2021/12/05 06:08:27;;;;;;;23.60;13.00;;;;;;;1.13;98.87;99735.77;1659964;86;21214;-82
2021/12/05 06:11:33;;;;;;;20.57;12.15;;;;;;;1.09;99.08;99735.67;1661310;86;21258;-82
2021/12/05 06:14:39;;;;;;;18.57;12.40;;;;;;;1.09;99.28;99730.28;1661353;86;21278;-82
2021/12/05 06:17:45;;;;;;;21.73;12.70;;;;;;;1.06;99.34;99726.98;1659824;86;21347;-82
2021/12/05 06:20:51;;;;;;;21.65;12.95;;;;;;;1.03;99.46;99732.13;1660818;86;21875;-82
2021/12/05 06:23:57;;;;;;;20.45;12.30;;;;;;;0.96;99.51;99726.41;1659886;86;21641;-83
2021/12/05 06:27:02;;;;;;;20.50;12.18;;;;;;;0.91;99.78;99727.79;1660947;86;21867;-82
2021/12/05 06:30:15;;;;;;;18.73;11.88;;;;;;;0.90;100.00;99721.55;1662293;86;21709;-82
2021/12/05 06:40:33;;;;;;;17.00;11.38;;;;;;;0.98;100.00;99732.51;1662401;86;21262;-82
2021/12/05 06:46:40;;;;;;;16.30;10.68;;;;;;;1.05;100.00;99744.98;1659971;86;21882;-82
2021/12/05 06:49:45;;;;;;;18.42;11.70;;;;;;;1.09;100.00;99746.44;1660094;86;21344;-82
2021/12/05 06:52:52;;;;;;;20.40;11.68;;;;;;;1.15;100.00;99756.69;1661876;86;21351;-82
2021/12/05 06:55:57;;;;;;;17.45;11.03;;;;;;;1.24;100.00;99757.25;1662533;86;21339;-82
2021/12/05 06:59:02;;;;;;;16.12;10.90;;;;;;;1.33;100.00;99760.16;1661821;86;21320;-82
2021/12/05 07:02:08;;;;;;;15.98;11.30;;;;;;;1.40;99.94;99759.98;1661101;86;21355;-82
2021/12/05 07:05:34;;;;;;;17.67;11.90;;;;;;;1.46;99.48;99768.42;1661415;86;21258;-82
2021/12/05 07:08:24;;;;;;;16.25;10.68;;;;;;;1.47;98.98;99767.92;1670398;85;21319;-82
2021/12/05 07:11:52;;;;;;;15.30;11.23;;;;;;;1.47;98.75;99771.47;1662155;85;21209;-82
2021/12/05 07:14:57;;;;;;;16.30;10.60;;;;;;;1.50;98.47;99777.07;1661428;86;21261;-82
2021/12/05 07:41:47;;;;;;;17.25;11.83;;;;;;;1.64;97.52;99776.73;1862207;76;22234;-83
2021/12/05 07:44:45;;;;;;;16.45;11.50;;;;;;;1.61;97.52;99777.02;1829529;77;21327;-82
2021/12/05 07:47:52;;;;;;;12.55;9.60;;;;;;;1.59;97.21;99784.37;1758109;80;21296;-82
2021/12/05 07:51:20;;;;;;;14.98;10.60;;;;;;;1.54;97.11;99793.34;1744975;80;21728;-82
2021/12/05 07:54:39;;;;;;;17.73;11.88;;;;;;;1.54;97.26;99791.50;1743643;79;21845;-83
2021/12/05 07:58:01;;;;;;;16.02;10.88;;;;;;;1.50;96.68;99802.67;1763988;81;21860;-83
2021/12/05 08:01:01;;;;;;;15.72;10.68;;;;;;;1.49;96.91;99804.52;1741580;79;21862;-82
2021/12/05 08:17:32;;;;;;;17.62;12.05;;;;;;;1.52;95.94;99800.72;1749844;81;21339;-82
2021/12/05 08:20:43;;;;;;;20.85;11.40;;;;;;;1.47;96.41;99796.22;1767588;80;21339;-83
2021/12/05 08:23:50;;;;;;;18.82;11.70;;;;;;;1.50;96.84;99781.97;1762494;80;21216;-81
2021/12/05 08:26:56;;;;;;;16.15;12.13;;;;;;;1.52;96.84;99776.47;1768961;80;21774;-80
2021/12/05 08:30:08;;;;;;;16.17;11.10;;;;;;;1.52;97.01;99777.31;1761659;80;21276;-80
2021/12/05 08:33:26;;;;;;;19.75;11.12;;;;;;;1.52;97.00;99808.81;1764784;81;21336;-81
2021/12/05 08:36:57;;;;;;;22.55;11.95;;;;;;;1.58;97.10;99808.28;1761673;80;21228;-80
2021/12/05 08:43:30;;;;;;;15.53;11.40;;;;;;;1.65;96.58;99816.71;1772863;81;21283;-80
2021/12/05 09:23:51;;;;;;;13.50;10.25;;;;;;;1.78;96.81;99790.38;1771908;81;21740;-82
2021/12/05 09:30:34;;;;;;;19.37;10.32;;;;;;;1.88;96.71;99795.33;1762907;81;21311;-83
2021/12/05 09:40:33;;;;;;;12.25;9.18;;;;;;;1.87;96.27;99791.42;1801741;79;21296;-82
2021/12/05 10:07:03;;;;;;;13.78;9.20;;;;;;;1.99;95.57;99791.72;1774673;80;21553;-82
2021/12/05 10:10:12;;;;;;;15.35;10.80;;;;;;;2.03;95.90;99808.00;1767908;80;21872;-82
2021/12/05 10:13:16;;;;;;;16.77;11.00;;;;;;;1.99;95.62;99807.41;1777466;80;21319;-82
2021/12/05 10:16:28;;;;;;;18.57;11.25;;;;;;;2.05;96.07;99804.66;1761889;80;21307;-82
2021/12/05 10:26:40;;;;;;;15.30;10.80;;;;;;;2.02;95.55;99815.24;1770122;80;21235;-82
2021/12/05 10:36:26;;;;;;;16.87;11.60;;;;;;;2.03;95.66;99825.53;1730391;80;21205;-82
2021/12/05 10:39:30;;;;;;;18.82;13.40;;;;;;;2.11;95.89;99837.84;1772910;80;21180;-81
2021/12/05 10:42:41;;;;;;;19.73;12.40;;;;;;;2.20;95.72;99837.53;1781300;80;21327;-82
2021/12/05 10:45:53;;;;;;;19.87;13.48;;;;;;;2.27;95.47;99844.97;1772015;79;21177;-82
2021/12/05 10:49:03;;;;;;;16.52;11.28;;;;;;;2.30;95.05;99846.03;1764687;80;21194;-82
2021/12/05 10:52:08;;;;;;;18.20;12.37;;;;;;;2.36;94.70;99842.45;1761328;81;21371;-82
2021/12/05 10:55:14;;;;;;;20.97;12.78;;;;;;;2.39;94.18;99852.47;1765066;80;21317;-82
2021/12/05 10:58:20;;;;;;;19.07;13.40;;;;;;;2.41;93.93;99860.45;1762845;80;21331;-83
2021/12/05 11:01:48;;;;;;;17.35;12.23;;;;;;;2.41;93.83;99861.80;1771722;80;21328;-82
2021/12/05 11:04:55;;;;;;;18.10;12.60;;;;;;;2.42;93.79;99868.41;1769552;80;21277;-82
2021/12/05 11:08:00;;;;;;;16.23;10.32;;;;;;;2.43;93.67;99867.91;1761627;80;21812;-82
2021/12/05 11:11:21;;;;;;;18.67;10.90;;;;;;;2.49;93.70;99877.69;1761581;80;21256;-82
2021/12/05 11:14:31;;;;;;;21.73;12.93;;;;;;;2.50;93.43;99880.73;1765004;80;21817;-82
2021/12/05 11:17:43;;;;;;;17.57;13.00;;;;;;;2.47;93.09;99881.50;1762522;80;21301;-83
2021/12/05 11:20:53;;;;;;;18.92;11.63;;;;;;;2.52;93.20;99873.84;1773077;80;21821;-82
2021/12/05 11:24:15;;;;;;;23.00;14.23;;;;;;;2.61;93.28;99877.08;1769944;80;21845;-82
2021/12/05 11:27:28;;;;;;;22.05;14.18;;;;;;;2.63;92.70;99875.09;1753885;80;21222;-82
2021/12/05 11:30:36;;;;;;;17.57;12.60;;;;;;;2.59;92.44;99887.17;1773320;80;21850;-82
2021/12/05 11:33:46;;;;;;;21.20;13.72;;;;;;;2.60;92.38;99890.23;1770881;80;21322;-82
2021/12/05 11:36:51;;;;;;;18.77;11.63;;;;;;;2.60;92.03;99898.83;1772000;80;21195;-82
2021/12/05 11:39:57;;;;;;;19.10;11.95;;;;;;;2.58;92.12;99900.29;1771608;80;21310;-82
2021/12/05 11:43:09;;;;;;;21.17;12.35;;;;;;;2.57;92.13;99901.29;1770185;80;21204;-82
2021/12/05 11:46:35;;;;;;;18.15;11.83;;;;;;;2.58;92.14;99901.64;1773300;80;21286;-82
2021/12/05 11:49:41;;;;;;;14.50;10.78;;;;;;;2.59;91.99;99908.78;1770910;81;21302;-82
2021/12/05 11:52:48;;;;;;;16.15;10.35;;;;;;;2.55;91.67;99905.98;1769653;80;21228;-82
2021/12/05 11:55:55;;;;;;;16.32;11.12;;;;;;;2.52;91.64;99896.80;1770859;80;21310;-82
2021/12/05 11:59:14;;;;;;;20.32;10.45;;;;;;;2.40;91.78;99900.09;1769869;80;21397;-82
2021/12/05 12:02:36;;;;;;;19.92;13.20;;;;;;;2.37;92.15;99912.98;1769759;80;21219;-82
2021/12/05 12:05:43;;;;;;;20.45;13.00;;;;;;;2.33;92.30;99915.09;1763316;81;21279;-82
2021/12/05 12:08:50;;;;;;;20.90;13.90;;;;;;;2.37;92.65;99924.64;1766511;80;21880;-82
2021/12/05 12:11:56;;;;;;;18.92;12.37;;;;;;;2.44;92.71;99929.00;1770592;80;21299;-82
2021/12/05 12:15:03;;;;;;;16.97;11.40;;;;;;;2.49;92.50;99932.15;1772229;80;21331;-83
2021/12/05 12:18:21;;;;;;;19.27;12.80;;;;;;;2.46;92.37;99936.48;1782705;79;21287;-82
2021/12/05 12:21:23;;;;;;;19.02;12.43;;;;;;;2.42;92.39;99932.34;1810615;79;21811;-82
2021/12/05 12:24:28;;;;;;;21.42;13.60;;;;;;;2.34;92.61;99938.39;1804840;79;21888;-83
2021/12/05 12:27:34;;;;;;;24.55;13.68;;;;;;;2.34;93.06;99934.84;1807368;79;21208;-82
2021/12/05 12:30:44;;;;;;;20.10;13.08;;;;;;;2.34;93.14;99938.39;1807132;79;21327;-82
2021/12/05 12:34:03;;;;;;;17.25;10.20;;;;;;;2.33;93.25;99937.19;1804751;79;21807;-82
2021/12/05 12:37:10;;;;;;;22.40;12.98;;;;;;;2.31;93.51;99942.72;1798471;79;21256;-82
2021/12/05 12:40:16;;;;;;;22.55;12.73;;;;;;;2.33;93.52;99945.28;1793108;79;21310;-82
2021/12/05 12:44:01;;;;;;;21.82;13.50;;;;;;;2.32;93.51;99942.23;1793239;79;21315;-82
2021/12/05 12:47:10;;;;;;;24.10;14.33;;;;;;;2.32;93.55;99946.27;1802080;79;21826;-82
2021/12/05 12:50:34;;;;;;;21.68;13.43;;;;;;;2.36;93.73;99946.38;1793308;79;21378;-82
2021/12/05 12:53:41;;;;;;;20.60;12.75;;;;;;;2.38;93.77;99947.94;1796894;79;21858;-82
2021/12/05 12:57:06;;;;;;;20.60;12.45;;;;;;;2.36;93.61;99942.33;1797072;79;21319;-82
2021/12/05 13:00:20;;;;;;;13.30;9.90;;;;;;;2.35;93.55;99944.14;1798564;79;21312;-82
2021/12/05 13:03:50;;;;;;;17.48;11.50;;;;;;;2.35;93.50;99943.29;1802482;79;21335;-82
2021/12/05 13:10:11;;;;;;;22.45;12.58;;;;;;;2.30;93.70;99942.34;1695338;79;21303;-83
2021/12/05 13:13:26;;;;;;;24.35;13.90;;;;;;;2.28;93.72;99942.48;1791745;79;21177;-82
2021/12/05 13:16:34;;;;;;;24.63;12.68;;;;;;;2.29;93.67;99944.19;1798293;79;21203;-82
2021/12/05 13:19:39;;;;;;;20.05;13.05;;;;;;;2.27;93.47;99930.48;1794035;79;21938;-82
2021/12/05 13:23:11;;;;;;;21.40;10.13;;;;;;;2.16;93.48;99925.98;1795847;79;21340;-82
2021/12/05 13:26:30;;;;;;;15.32;10.28;;;;;;;2.00;93.99;99910.77;1803018;79;21846;-82
2021/12/05 13:29:34;;;;;;;14.30;9.83;;;;;;;1.94;94.49;99905.41;1801556;79;21320;-82
2021/12/05 13:32:39;;;;;;;14.55;10.80;;;;;;;1.88;94.79;99901.01;1794205;79;21382;-82
2021/12/05 13:35:48;;;;;;;17.75;10.70;;;;;;;1.79;95.21;99898.13;1786770;79;21224;-82
2021/12/05 13:38:55;;;;;;;13.75;10.10;;;;;;;1.74;95.85;99911.16;1788105;79;21203;-83
2021/12/05 13:42:17;;;;;;;15.00;9.90;;;;;;;1.69;96.16;99909.31;1794700;79;21216;-82
2021/12/05 13:45:31;;;;;;;14.40;9.68;;;;;;;1.63;96.27;99904.94;1791766;79;21338;-82
2021/12/05 13:48:37;;;;;;;11.88;8.63;;;;;;;1.57;96.60;99923.84;1770558;79;21951;-82
2021/12/05 13:51:42;;;;;;;13.30;9.13;;;;;;;1.52;96.71;99922.02;1750045;80;21326;-82
2021/12/05 13:54:47;;;;;;;15.18;9.65;;;;;;;1.48;96.72;99929.50;1754655;81;21865;-82
2021/12/05 13:58:45;;;;;;;14.85;8.88;;;;;;;1.47;96.88;99940.42;1753018;80;21904;-81
2021/12/05 14:01:54;;;;;;;11.90;8.98;;;;;;;1.39;97.00;99945.09;1755506;80;21298;-82
2021/12/05 14:05:01;;;;;;;13.80;8.55;;;;;;;1.36;97.26;99945.33;1764925;80;21719;-82
2021/12/05 14:08:06;;;;;;;13.72;8.80;;;;;;;1.38;97.35;99943.88;1765860;80;21339;-82
2021/12/05 14:11:12;;;;;;;21.07;8.90;;;;;;;1.37;97.27;99939.47;1772045;80;21288;-81
2021/12/05 14:14:17;;;;;;;14.40;9.38;;;;;;;1.42;97.32;99956.13;1722248;81;21296;-81
2021/12/05 14:17:33;;;;;;;15.30;9.65;;;;;;;1.45;97.09;99966.62;1762063;79;21256;-82
2021/12/05 14:20:38;;;;;;;11.65;8.95;;;;;;;1.48;96.95;99966.38;1771645;81;21880;-82
2021/12/05 14:23:45;;;;;;;14.80;9.13;;;;;;;1.53;96.86;99970.90;1771782;80;21183;-82
2021/12/05 14:26:52;;;;;;;12.82;8.28;;;;;;;1.56;96.51;99960.37;1766038;80;21203;-82
2021/12/05 14:29:58;;;;;;;11.18;7.22;;;;;;;1.54;96.22;99954.59;1759650;80;21306;-82
2021/12/05 14:33:03;;;;;;;13.83;9.03;;;;;;;1.57;96.11;99943.20;1771219;80;21194;-82
2021/12/05 14:36:10;;;;;;;13.75;9.80;;;;;;;1.55;95.89;99951.40;1769919;80;21825;-82
2021/12/05 14:39:39;;;;;;;17.57;9.03;;;;;;;1.55;95.89;99958.14;1770654;80;22472;-82
2021/12/05 14:42:47;;;;;;;13.08;8.60;;;;;;;1.58;95.71;99948.46;1779472;80;21176;-82
2021/12/05 14:45:53;;;;;;;11.50;8.10;;;;;;;1.56;95.59;99934.77;1771350;80;21361;-82
2021/12/05 14:49:02;;;;;;;16.00;10.58;;;;;;;1.52;95.58;99953.02;1792698;79;21299;-81
2021/12/05 14:52:09;;;;;;;34.78;28.65;;;;;;;1.50;95.69;99957.17;1796624;79;21291;-82
2021/12/05 14:55:20;;;;;;;20.15;14.05;;;;;;;1.54;95.61;99964.52;1789301;79;21858;-82
2021/12/05 14:58:30;;;;;;;13.80;10.75;;;;;;;1.55;95.53;99967.58;1787772;79;21319;-82
2021/12/05 15:01:36;;;;;;;15.72;10.53;;;;;;;1.56;95.60;99979.24;1801256;79;21359;-82
2021/12/05 15:04:53;;;;;;;15.32;10.72;;;;;;;1.60;95.82;99980.20;1802563;79;21323;-82
2021/12/05 15:08:14;;;;;;;16.15;10.78;;;;;;;1.64;95.72;99978.94;1802268;79;21772;-81
2021/12/05 15:11:18;;;;;;;;;;;;;;;1.66;95.45;99977.00;1801816;79;21188;-82
2021/12/05 15:14:25;;;;;;;16.48;11.48;;;;;;;1.63;95.42;99981.28;1797784;79;20280;-82
2021/12/05 15:17:34;;;;;;;25.30;21.12;;;;;;;1.64;95.57;99987.03;1795231;79;21256;-82
2021/12/05 15:20:41;;;;;;;14.70;11.20;;;;;;;1.66;95.54;99990.47;1794374;79;21304;-82
2021/12/05 15:23:47;;;;;;;29.75;24.32;;;;;;;1.74;95.60;99996.09;1796938;79;21322;-82
2021/12/05 15:26:56;;;;;;;18.48;13.75;;;;;;;1.82;95.42;100004.88;1796102;79;21304;-82
2021/12/05 15:30:06;;;;;;;21.55;13.98;;;;;;;1.88;95.24;100000.80;1791069;79;21744;-82
2021/12/05 15:33:15;;;;;;;16.57;11.48;;;;;;;1.91;94.93;100000.56;1764582;79;21294;-82
2021/12/05 15:36:20;;;;;;;14.03;10.05;;;;;;;1.92;94.78;100007.66;1801499;79;21286;-82
2021/12/05 15:39:30;;;;;;;21.45;14.10;;;;;;;1.89;94.57;100010.63;1791509;79;21197;-82
2021/12/05 15:42:40;;;;;;;;;;;;;;;1.86;94.69;100008.18;1797991;79;21326;-81
2021/12/05 15:45:46;;;;;;;17.27;12.28;;;;;;;1.81;95.02;100013.95;1792561;79;20276;-82
2021/12/05 15:48:55;;;;;;;24.82;15.23;;;;;;;1.83;95.36;100017.37;1790022;79;21197;-82
2021/12/05 15:52:06;;;;;;;27.48;15.95;;;;;;;1.87;95.44;100020.18;1760485;79;21319;-82
2021/12/05 15:55:31;;;;;;;25.08;14.93;;;;;;;1.93;95.44;100024.20;1784917;79;21327;-82
2021/12/05 15:58:58;;;;;;;20.23;13.30;;;;;;;1.96;95.31;100023.45;1803798;79;21327;-82
2021/12/05 16:02:00;;;;;;;21.17;14.10;;;;;;;1.91;95.05;100030.23;1798576;79;22002;-82
2021/12/05 16:05:06;;;;;;;21.57;14.45;;;;;;;1.85;95.23;100025.36;1801439;79;21308;-82
2021/12/05 16:08:16;;;;;;;20.80;13.85;;;;;;;1.81;95.49;100010.41;1803562;79;21318;-82
2021/12/05 16:11:26;;;;;;;23.45;14.45;;;;;;;1.78;95.84;100010.16;1804203;79;21249;-82
2021/12/05 16:14:38;;;;;;;23.73;13.75;;;;;;;1.73;96.14;100007.84;1794380;79;21347;-82
2021/12/05 16:17:45;;;;;;;23.55;15.43;;;;;;;1.66;96.57;100008.00;1786985;79;21181;-82
2021/12/05 16:21:05;;;;;;;22.52;14.30;;;;;;;1.59;97.04;100005.43;1763827;80;21357;-82
2021/12/05 16:24:20;;;;;;;25.43;14.95;;;;;;;1.58;97.81;100010.47;1763917;81;21201;-82
2021/12/05 16:27:28;;;;;;;20.75;15.03;;;;;;;1.57;98.18;100006.06;1765085;80;21201;-82
2021/12/05 16:30:36;;;;;;;24.98;16.40;;;;;;;1.54;98.72;100002.26;1772391;80;21681;-83
2021/12/05 16:33:43;;;;;;;30.65;17.50;;;;;;;1.53;99.14;100001.91;1777293;79;21341;-82
2021/12/05 16:36:53;;;;;;;27.67;16.77;;;;;;;1.52;99.52;100002.89;1749262;80;21215;-82
2021/12/05 16:40:01;;;;;;;21.00;14.90;;;;;;;1.51;99.84;100005.23;1771080;80;21364;-82
2021/12/05 16:43:16;;;;;;;38.05;20.62;;;;;;;1.51;100.00;100010.62;1770646;80;21811;-82
2021/12/05 16:46:42;;;;;;;26.10;16.95;;;;;;;1.46;100.00;100015.53;1768265;80;21322;-83
2021/12/05 16:49:56;;;;;;;34.08;19.85;;;;;;;1.48;100.00;100020.30;1763626;80;21330;-83
2021/12/05 16:53:07;;;;;;;32.88;19.92;;;;;;;1.47;100.00;100018.09;1769372;81;21314;-82
2021/12/05 16:56:16;;;;;;;55.65;40.83;;;;;;;1.53;100.00;100029.71;1772457;80;21302;-83
2021/12/05 16:59:29;;;;;;;55.50;34.63;;;;;;;1.54;100.00;100043.55;1771869;80;21294;-82
2021/12/05 17:02:54;;;;;;;42.10;24.65;;;;;;;1.54;100.00;100057.03;1762332;80;21951;-83
2021/12/05 17:06:09;;;;;;;38.65;25.40;;;;;;;1.59;100.00;100053.95;1753362;80;21314;-83
2021/12/05 17:09:17;;;;;;;33.98;21.33;;;;;;;1.67;100.00;100060.08;1774029;80;21853;-82
2021/12/05 17:12:35;;;;;;;33.75;21.27;;;;;;;1.72;100.00;100060.56;1777836;80;21287;-82
2021/12/05 17:15:43;;;;;;;28.57;21.00;;;;;;;1.76;100.00;100049.89;1770399;80;21223;-82
2021/12/05 17:19:13;;;;;;;72.53;58.95;;;;;;;1.82;100.00;100061.52;1764985;81;21844;-82
2021/12/05 17:22:19;;;;;;;40.35;24.32;;;;;;;1.86;100.00;100066.17;1763007;80;21314;-83
2021/12/05 17:25:43;;;;;;;28.27;19.07;;;;;;;1.94;100.00;100047.02;1746086;80;21351;-82
2021/12/05 17:29:06;;;;;;;33.35;20.20;;;;;;;2.03;100.00;100049.45;1765908;80;21880;-83
2021/12/05 17:32:24;;;;;;;34.95;21.12;;;;;;;2.02;100.00;100045.90;1760852;80;21415;-83
2021/12/05 17:35:31;;;;;;;40.43;23.83;;;;;;;2.10;100.00;100051.13;1763431;80;21371;-82
2021/12/05 17:38:41;;;;;;;37.50;23.18;;;;;;;2.11;100.00;100046.09;1765219;79;21331;-82
2021/12/05 17:41:46;;;;;;;38.65;28.42;;;;;;;2.08;100.00;100044.52;1774105;80;21224;-82
2021/12/05 17:44:54;;;;;;;53.20;38.15;;;;;;;2.10;100.00;100049.78;1779960;80;21674;-83
2021/12/05 17:48:02;;;;;;;47.65;37.13;;;;;;;2.08;99.90;100053.97;1766366;80;21242;-82
2021/12/05 17:51:10;;;;;;;63.42;48.17;;;;;;;2.07;99.69;100047.33;1745981;80;21301;-82
2021/12/05 17:54:27;;;;;;;44.70;33.88;;;;;;;2.01;99.42;100044.66;1768768;80;21302;-83
2021/12/05 17:57:38;;;;;;;31.35;22.82;;;;;;;2.00;99.33;100045.65;1770357;80;21211;-83
2021/12/05 18:02:35;;;;;;;22.80;16.27;;;;;;;1.96;98.93;100061.72;1766876;81;21677;-83
2021/12/05 18:03:55;;;;;;;23.15;14.68;;;;;;;1.93;98.85;100063.31;1767880;80;21738;-82
2021/12/05 18:07:01;;;;;;;25.15;15.80;;;;;;;1.91;98.64;100074.73;1769094;80;21816;-82
2021/12/05 18:10:07;;;;;;;22.90;14.50;;;;;;;1.82;98.49;100080.39;1771807;81;21266;-82
2021/12/05 18:13:15;;;;;;;23.02;15.05;;;;;;;1.78;98.42;100080.27;1772024;80;21754;-83
2021/12/05 18:16:27;;;;;;;21.95;18.48;;;;;;;1.71;98.42;100073.69;1768405;80;21283;-82
2021/12/05 18:19:33;;;;;;;20.35;15.93;;;;;;;1.69;98.64;100075.14;1771076;80;21249;-83
2021/12/05 18:22:40;;;;;;;22.45;14.83;;;;;;;1.71;98.71;100081.28;1768946;80;21848;-82
2021/12/05 18:25:48;;;;;;;17.07;13.53;;;;;;;1.69;98.60;100083.22;1770198;80;21342;-82
2021/12/05 18:28:55;;;;;;;20.68;16.10;;;;;;;1.71;98.62;100079.08;1769387;81;21333;-82
2021/12/05 18:32:04;;;;;;;17.70;14.28;;;;;;;1.70;98.54;100079.57;1769764;80;21797;-82
2021/12/05 18:35:13;;;;;;;19.07;13.28;;;;;;;1.74;98.59;100083.73;1775811;80;21283;-82
2021/12/05 18:38:24;;;;;;;26.80;21.30;;;;;;;1.77;98.54;100076.72;1776716;80;21307;-82
2021/12/05 18:41:33;;;;;;;25.75;17.25;;;;;;;1.76;98.39;100070.97;1774150;80;21351;-83
2021/12/05 18:44:47;;;;;;;26.15;19.95;;;;;;;1.75;98.36;100070.61;1757947;80;21224;-82
2021/12/05 18:47:49;;;;;;;26.50;19.85;;;;;;;1.77;98.43;100076.72;1761529;80;21308;-82
2021/12/05 18:50:56;;;;;;;72.27;60.73;;;;;;;1.81;98.45;100068.39;1761043;80;21315;-82
2021/12/05 18:54:01;;;;;;;61.35;46.63;;;;;;;1.83;98.31;100061.02;1760438;80;21328;-82
2021/12/05 18:57:09;;;;;;;55.38;44.35;;;;;;;1.82;98.18;100062.86;1759381;80;21933;-82
2021/12/05 19:00:26;;;;;;;29.37;19.17;;;;;;;1.79;98.07;100062.64;1766650;80;21343;-82